createdAt,value
2018-01-08T00:00:47.445Z,0
2018-01-08T00:01:47.354Z,0
2018-01-08T00:02:47.201Z,0
2018-01-08T00:03:47.257Z,0
2018-01-08T00:04:47.224Z,0
2018-01-08T00:05:47.202Z,0
2018-01-08T00:06:47.965Z,0
2018-01-08T00:07:47.596Z,0
2018-01-08T00:08:48.503Z,0
2018-01-08T00:09:47.510Z,0
2018-01-08T00:10:48.201Z,0
2018-01-08T00:11:48.996Z,0
2018-01-08T00:12:48.598Z,0
2018-01-08T00:13:48.563Z,0
2018-01-08T00:14:48.798Z,0
2018-01-08T00:15:48.664Z,0
2018-01-08T00:16:49.752Z,0
2018-01-08T00:17:49.255Z,0
2018-01-08T00:18:49.306Z,0
2018-01-08T00:19:49.259Z,0
2018-01-08T00:20:49.145Z,0
2018-01-08T00:21:49.783Z,0
2018-01-08T00:22:49.327Z,0
2018-01-08T00:23:49.739Z,0
2018-01-08T00:24:50.215Z,0
2018-01-08T00:25:50.390Z,0
2018-01-08T00:26:50.143Z,0
2018-01-08T00:27:50.963Z,0
2018-01-08T00:28:50.361Z,0
2018-01-08T00:29:50.124Z,0
2018-01-08T00:30:50.553Z,0
2018-01-08T00:31:50.953Z,0
2018-01-08T00:32:51.324Z,0
2018-01-08T00:33:51.154Z,0
2018-01-08T00:34:51.993Z,0
2018-01-08T00:35:52.300Z,0
2018-01-08T00:36:53.555Z,0
2018-01-08T00:37:53.429Z,0
2018-01-08T00:38:54.117Z,0
2018-01-08T00:39:52.416Z,0
2018-01-08T00:40:52.264Z,0
2018-01-08T00:41:51.982Z,0
2018-01-08T00:42:53.060Z,0
2018-01-08T00:43:52.525Z,0
2018-01-08T00:44:53.206Z,0
2018-01-08T00:45:53.203Z,0
2018-01-08T00:46:53.217Z,0
2018-01-08T00:47:53.410Z,0
2018-01-08T00:48:53.418Z,0
2018-01-08T00:49:53.145Z,0
2018-01-08T00:50:53.855Z,0
2018-01-08T00:51:53.228Z,0
2018-01-08T00:52:55.133Z,0
2018-01-08T00:53:53.725Z,0
2018-01-08T00:54:55.338Z,0
2018-01-08T00:55:54.877Z,0
2018-01-08T00:56:54.761Z,0
2018-01-08T00:57:55.142Z,0
2018-01-08T00:58:55.319Z,0
2018-01-08T00:59:54.907Z,0
2018-01-08T01:01:55.250Z,0
2018-01-08T01:03:09.761Z,0
2018-01-08T01:03:55.857Z,0
2018-01-08T01:04:55.039Z,0
2018-01-08T01:06:09.582Z,0
2018-01-08T01:06:56.311Z,0
2018-01-08T01:07:55.843Z,0
2018-01-08T01:08:56.015Z,0
2018-01-08T01:09:55.632Z,0
2018-01-08T01:10:56.139Z,0
2018-01-08T01:11:54.769Z,0
2018-01-08T01:12:56.043Z,0
2018-01-08T01:13:54.271Z,0
2018-01-08T01:14:56.244Z,0
2018-01-08T01:15:55.538Z,0
2018-01-08T01:16:55.828Z,0
2018-01-08T01:17:56.272Z,0
2018-01-08T01:18:53.823Z,0
2018-01-08T01:19:53.386Z,0
2018-01-08T01:20:53.399Z,0
2018-01-08T01:21:54.189Z,0
2018-01-08T01:22:54.069Z,0
2018-01-08T01:23:53.624Z,0
2018-01-08T01:24:54.402Z,0
2018-01-08T01:25:53.996Z,0
2018-01-08T01:26:55.296Z,0
2018-01-08T01:27:56.849Z,0
2018-01-08T01:28:54.905Z,0
2018-01-08T01:29:55.828Z,0
2018-01-08T01:30:57.489Z,0
2018-01-08T01:31:57.534Z,0
2018-01-08T01:32:56.642Z,0
2018-01-08T01:33:56.812Z,0
2018-01-08T01:34:56.653Z,0
2018-01-08T01:35:56.135Z,0
2018-01-08T01:36:55.443Z,0
2018-01-08T01:37:55.761Z,0
2018-01-08T01:38:54.947Z,0
2018-01-08T01:39:54.904Z,0
2018-01-08T01:40:55.369Z,0
2018-01-08T01:41:55.977Z,0
2018-01-08T01:42:55.595Z,0
2018-01-08T01:43:54.681Z,0
2018-01-08T01:44:54.972Z,0
2018-01-08T01:45:55.526Z,0
2018-01-08T01:46:54.935Z,0
2018-01-08T01:47:56.018Z,0
2018-01-08T01:48:55.682Z,0
2018-01-08T01:49:55.443Z,0
2018-01-08T01:50:55.251Z,0
2018-01-08T01:51:55.578Z,0
2018-01-08T01:52:55.822Z,0
2018-01-08T01:53:55.966Z,0
2018-01-08T01:54:56.260Z,0
2018-01-08T01:55:56.597Z,0
2018-01-08T01:56:57.583Z,0
2018-01-08T01:57:57.462Z,0
2018-01-08T01:58:56.434Z,0
2018-01-08T01:59:56.461Z,0
2018-01-08T02:00:56.203Z,0
2018-01-08T02:01:56.686Z,0
2018-01-08T02:02:56.494Z,0
2018-01-08T02:03:56.695Z,0
2018-01-08T02:04:56.948Z,0
2018-01-08T02:05:56.889Z,0
2018-01-08T02:06:58.643Z,0
2018-01-08T02:07:56.684Z,0
2018-01-08T02:08:57.097Z,0
2018-01-08T02:09:56.518Z,0
2018-01-08T02:10:56.956Z,0
2018-01-08T02:11:57.126Z,0
2018-01-08T02:12:57.542Z,0
2018-01-08T02:13:57.848Z,0
2018-01-08T02:14:58.596Z,0
2018-01-08T02:15:58.704Z,0
2018-01-08T02:16:58.385Z,0
2018-01-08T02:17:58.157Z,0
2018-01-08T02:18:58.316Z,0
2018-01-08T02:19:58.370Z,0
2018-01-08T02:20:59.059Z,0
2018-01-08T02:21:58.503Z,0
2018-01-08T02:22:58.600Z,0
2018-01-08T02:23:58.596Z,0
2018-01-08T02:24:59.082Z,0
2018-01-08T02:25:58.328Z,0
2018-01-08T02:26:58.897Z,0
2018-01-08T02:28:00.707Z,0
2018-01-08T02:28:59.322Z,0
2018-01-08T02:29:59.876Z,0
2018-01-08T02:30:59.749Z,0
2018-01-08T02:32:48.809Z,0
2018-01-08T02:33:05.033Z,0
2018-01-08T02:34:05.026Z,0
2018-01-08T02:35:04.595Z,0
2018-01-08T02:36:05.240Z,0
2018-01-08T02:37:05.075Z,0
2018-01-08T02:38:05.105Z,0
2018-01-08T02:39:05.474Z,0
2018-01-08T02:40:05.595Z,0
2018-01-08T02:41:05.872Z,0
2018-01-08T02:42:06.047Z,0
2018-01-08T02:43:06.213Z,0
2018-01-08T02:44:06.612Z,0
2018-01-08T02:45:07.135Z,0
2018-01-08T02:46:07.283Z,0
2018-01-08T02:47:07.290Z,0
2018-01-08T02:48:07.055Z,0
2018-01-08T02:49:07.454Z,0
2018-01-08T02:50:07.942Z,0
2018-01-08T02:51:08.152Z,0
2018-01-08T02:52:08.274Z,0
2018-01-08T02:53:07.911Z,0
2018-01-08T02:54:09.001Z,0
2018-01-08T02:55:08.722Z,0
2018-01-08T02:56:09.009Z,0
2018-01-08T02:57:09.376Z,0
2018-01-08T02:58:09.400Z,0
2018-01-08T02:59:09.437Z,0
2018-01-08T03:00:24.048Z,0
2018-01-08T03:01:08.932Z,0
2018-01-08T03:02:09.466Z,0
2018-01-08T03:03:08.749Z,0
2018-01-08T03:04:08.974Z,0
2018-01-08T03:05:09.426Z,0
2018-01-08T03:06:09.546Z,0
2018-01-08T03:07:09.595Z,0
2018-01-08T03:08:09.084Z,0
2018-01-08T03:09:09.468Z,0
2018-01-08T03:10:10.208Z,0
2018-01-08T03:11:09.621Z,0
2018-01-08T03:12:09.737Z,0
2018-01-08T03:13:10.154Z,0
2018-01-08T03:14:10.558Z,0
2018-01-08T03:15:10.348Z,0
2018-01-08T03:16:10.494Z,0
2018-01-08T03:17:10.529Z,0
2018-01-08T03:18:10.846Z,0
2018-01-08T03:19:10.993Z,0
2018-01-08T03:20:11.129Z,0
2018-01-08T03:21:11.543Z,0
2018-01-08T03:22:10.951Z,0
2018-01-08T03:23:11.959Z,0
2018-01-08T03:24:12.587Z,0
2018-01-08T03:25:12.431Z,0
2018-01-08T03:26:12.389Z,0
2018-01-08T03:27:12.255Z,0
2018-01-08T03:28:13.041Z,0
2018-01-08T03:29:13.076Z,0
2018-01-08T03:30:12.603Z,0
2018-01-08T03:31:12.546Z,0
2018-01-08T03:32:12.825Z,0
2018-01-08T03:33:13.155Z,0
2018-01-08T03:34:13.108Z,0
2018-01-08T03:35:13.609Z,0
2018-01-08T03:36:13.717Z,0
2018-01-08T03:37:14.098Z,0
2018-01-08T03:38:13.319Z,0
2018-01-08T03:39:13.604Z,0
2018-01-08T03:40:14.409Z,0
2018-01-08T03:41:13.942Z,0
2018-01-08T03:42:14.328Z,0
2018-01-08T03:43:14.968Z,0
2018-01-08T03:44:14.513Z,0
2018-01-08T03:45:14.324Z,0
2018-01-08T03:46:15.089Z,0
2018-01-08T03:47:14.855Z,0
2018-01-08T03:48:15.007Z,0
2018-01-08T03:49:15.118Z,0
2018-01-08T03:50:15.539Z,0
2018-01-08T03:51:15.990Z,0
2018-01-08T03:52:16.374Z,0
2018-01-08T03:53:16.132Z,0
2018-01-08T03:54:16.006Z,0
2018-01-08T03:55:16.797Z,0
2018-01-08T03:56:17.171Z,0
2018-01-08T03:57:16.741Z,0
2018-01-08T03:58:17.337Z,0
2018-01-08T03:59:17.455Z,0
2018-01-08T04:00:32.155Z,0
2018-01-08T04:01:32.272Z,0
2018-01-08T04:02:32.972Z,0
2018-01-08T04:03:32.907Z,0
2018-01-08T04:04:32.618Z,0
2018-01-08T04:05:32.564Z,0
2018-01-08T04:06:32.792Z,0
2018-01-08T04:07:33.145Z,0
2018-01-08T04:08:32.674Z,0
2018-01-08T04:09:32.711Z,0
2018-01-08T04:10:33.202Z,0
2018-01-08T04:11:33.399Z,0
2018-01-08T04:12:33.083Z,0
2018-01-08T04:13:33.248Z,0
2018-01-08T04:14:33.432Z,0
2018-01-08T04:15:34.221Z,0
2018-01-08T04:16:33.901Z,0
2018-01-08T04:17:34.026Z,0
2018-01-08T04:18:34.528Z,0
2018-01-08T04:19:34.395Z,0
2018-01-08T04:20:34.765Z,0
2018-01-08T04:21:34.557Z,0
2018-01-08T04:22:34.468Z,0
2018-01-08T04:23:35.045Z,0
2018-01-08T04:24:35.499Z,0
2018-01-08T04:25:35.456Z,0
2018-01-08T04:26:35.844Z,0
2018-01-08T04:27:35.689Z,0
2018-01-08T04:28:36.286Z,0
2018-01-08T04:29:36.630Z,0
2018-01-08T04:30:36.361Z,0
2018-01-08T04:31:36.612Z,0
2018-01-08T04:32:36.561Z,0
2018-01-08T04:33:36.696Z,0
2018-01-08T04:34:37.824Z,0
2018-01-08T04:35:39.950Z,0
2018-01-08T04:36:39.575Z,0
2018-01-08T04:37:38.112Z,0
2018-01-08T04:38:41.277Z,0
2018-01-08T04:39:39.495Z,0
2018-01-08T04:40:40.532Z,0
2018-01-08T04:41:40.228Z,0
2018-01-08T04:42:39.555Z,0
2018-01-08T04:43:40.039Z,0
2018-01-08T04:44:39.919Z,0
2018-01-08T04:45:38.396Z,0
2018-01-08T04:46:38.661Z,0
2018-01-08T04:47:39.361Z,0
2018-01-08T04:48:39.217Z,0
2018-01-08T04:49:39.758Z,0
2018-01-08T04:50:39.100Z,0
2018-01-08T04:51:40.124Z,0
2018-01-08T04:52:39.928Z,0
2018-01-08T04:53:40.012Z,0
2018-01-08T04:54:39.655Z,0
2018-01-08T04:55:39.649Z,0
2018-01-08T04:56:40.069Z,0
2018-01-08T04:57:39.159Z,0
2018-01-08T04:58:39.437Z,0
2018-01-08T04:59:39.945Z,0
2018-01-08T05:00:42.444Z,0
2018-01-08T05:01:41.216Z,0
2018-01-08T05:02:41.630Z,0
2018-01-08T05:03:41.013Z,0
2018-01-08T05:04:41.420Z,0
2018-01-08T05:05:42.080Z,0
2018-01-08T05:06:41.840Z,0
2018-01-08T05:07:42.030Z,0
2018-01-08T05:08:43.949Z,0
2018-01-08T05:09:43.213Z,0
2018-01-08T05:10:42.350Z,0
2018-01-08T05:11:42.652Z,0
2018-01-08T05:12:43.588Z,0
2018-01-08T05:13:43.864Z,0
2018-01-08T05:14:42.501Z,0
2018-01-08T05:15:44.467Z,0
2018-01-08T05:16:44.354Z,0
2018-01-08T05:17:44.718Z,0
2018-01-08T05:18:44.625Z,0
2018-01-08T05:19:43.275Z,0
2018-01-08T05:20:42.892Z,0
2018-01-08T05:21:43.164Z,0
2018-01-08T05:22:43.638Z,0
2018-01-08T05:23:43.596Z,0
2018-01-08T05:24:43.494Z,0
2018-01-08T05:25:43.320Z,0
2018-01-08T05:26:44.224Z,0
2018-01-08T05:27:44.158Z,0
2018-01-08T05:28:42.980Z,0
2018-01-08T05:29:43.261Z,0
2018-01-08T05:30:43.566Z,0
2018-01-08T05:31:44.051Z,0
2018-01-08T05:32:43.831Z,0
2018-01-08T05:33:44.531Z,0
2018-01-08T05:34:44.691Z,0
2018-01-08T05:35:44.318Z,0
2018-01-08T05:36:45.151Z,0
2018-01-08T05:37:45.289Z,0
2018-01-08T05:38:45.315Z,0
2018-01-08T05:39:45.133Z,0
2018-01-08T05:40:45.391Z,0
2018-01-08T05:41:45.690Z,0
2018-01-08T05:42:46.084Z,0
2018-01-08T05:43:46.007Z,0
2018-01-08T05:44:46.242Z,0
2018-01-08T05:45:46.226Z,0
2018-01-08T05:46:46.133Z,0
2018-01-08T05:47:46.715Z,0
2018-01-08T05:48:46.407Z,0
2018-01-08T05:49:46.475Z,0
2018-01-08T05:50:46.732Z,0
2018-01-08T05:51:46.922Z,0
2018-01-08T05:52:47.926Z,0
2018-01-08T05:53:46.864Z,0
2018-01-08T05:54:46.694Z,0
2018-01-08T05:55:47.731Z,0
2018-01-08T05:56:47.909Z,0
2018-01-08T05:57:47.449Z,0
2018-01-08T05:58:47.320Z,0
2018-01-08T05:59:47.361Z,0
2018-01-08T06:00:48.075Z,0
2018-01-08T06:01:47.720Z,0
2018-01-08T06:02:47.228Z,0
2018-01-08T06:03:48.447Z,0
2018-01-08T06:04:47.631Z,0
2018-01-08T06:05:47.870Z,0
2018-01-08T06:06:48.066Z,0
2018-01-08T06:07:47.683Z,0
2018-01-08T06:08:48.267Z,0
2018-01-08T06:09:48.486Z,0
2018-01-08T06:10:49.203Z,0
2018-01-08T06:11:49.372Z,0
2018-01-08T06:12:49.481Z,0
2018-01-08T06:13:48.923Z,0
2018-01-08T06:14:49.181Z,0
2018-01-08T06:15:49.757Z,0
2018-01-08T06:16:50.399Z,0
2018-01-08T06:17:49.683Z,0
2018-01-08T06:18:51.041Z,0
2018-01-08T06:19:50.692Z,0
2018-01-08T06:20:51.130Z,0
2018-01-08T06:21:50.526Z,0
2018-01-08T06:22:50.913Z,0
2018-01-08T06:23:50.776Z,0
2018-01-08T06:24:51.553Z,0
2018-01-08T06:25:51.062Z,0
2018-01-08T06:26:51.259Z,0
2018-01-08T06:27:51.444Z,0
2018-01-08T06:28:51.261Z,0
2018-01-08T06:29:51.455Z,0
2018-01-08T06:30:52.113Z,0
2018-01-08T06:31:51.988Z,0
2018-01-08T06:32:52.036Z,0
2018-01-08T06:33:52.994Z,0
2018-01-08T06:34:53.397Z,0
2018-01-08T06:35:52.991Z,0
2018-01-08T06:36:52.045Z,0
2018-01-08T06:37:52.926Z,0
2018-01-08T06:38:52.160Z,0
2018-01-08T06:39:54.081Z,0
2018-01-08T06:40:53.412Z,0
2018-01-08T06:41:55.134Z,0
2018-01-08T06:42:52.927Z,0
2018-01-08T06:43:54.183Z,0
2018-01-08T06:44:53.763Z,0
2018-01-08T06:45:55.564Z,0
2018-01-08T06:46:53.982Z,0
2018-01-08T06:47:54.556Z,0
2018-01-08T06:48:54.060Z,0
2018-01-08T06:49:53.485Z,0
2018-01-08T06:50:53.882Z,0
2018-01-08T06:51:54.263Z,0
2018-01-08T06:52:54.635Z,0
2018-01-08T06:53:54.572Z,0
2018-01-08T06:54:55.069Z,0
2018-01-08T06:55:55.225Z,0
2018-01-08T06:56:55.626Z,0
2018-01-08T06:57:55.546Z,0
2018-01-08T06:58:55.866Z,0
2018-01-08T06:59:56.305Z,0
2018-01-08T07:00:57.043Z,0
2018-01-08T07:01:56.946Z,0
2018-01-08T07:02:57.187Z,0
2018-01-08T07:03:57.904Z,0
2018-01-08T07:04:56.473Z,0
2018-01-08T07:05:56.606Z,5
2018-01-08T07:06:56.761Z,5
2018-01-08T07:07:57.903Z,5
2018-01-08T07:08:57.322Z,5
2018-01-08T07:09:57.502Z,5
2018-01-08T07:10:57.228Z,5
2018-01-08T07:11:57.317Z,5
2018-01-08T07:12:57.915Z,5
2018-01-08T07:13:58.060Z,5
2018-01-08T07:14:58.411Z,10
2018-01-08T07:15:58.785Z,10
2018-01-08T07:16:58.580Z,10
2018-01-08T07:17:58.850Z,10
2018-01-08T07:18:58.307Z,10
2018-01-08T07:19:58.158Z,10
2018-01-08T07:20:58.989Z,10
2018-01-08T07:21:58.998Z,15
2018-01-08T07:22:58.500Z,15
2018-01-08T07:23:58.945Z,15
2018-01-08T07:24:59.049Z,15
2018-01-08T07:25:59.142Z,15
2018-01-08T07:26:59.316Z,15
2018-01-08T07:27:59.808Z,15
2018-01-08T07:29:00.020Z,20
2018-01-08T07:29:59.847Z,20
2018-01-08T07:31:00.096Z,20
2018-01-08T07:32:00.271Z,20
2018-01-08T07:33:00.781Z,20
2018-01-08T07:34:00.656Z,25
2018-01-08T07:35:00.725Z,25
2018-01-08T07:36:01.149Z,25
2018-01-08T07:37:00.960Z,25
2018-01-08T07:38:01.351Z,25
2018-01-08T07:39:01.713Z,30
2018-01-08T07:40:03.081Z,30
2018-01-08T07:41:02.199Z,30
2018-01-08T07:42:02.861Z,30
2018-01-08T07:43:01.952Z,35
2018-01-08T07:44:03.033Z,35
2018-01-08T07:45:02.225Z,35
2018-01-08T07:46:02.514Z,35
2018-01-08T07:47:02.369Z,35
2018-01-08T07:48:02.711Z,40
2018-01-08T07:49:02.961Z,40
2018-01-08T07:50:03.228Z,40
2018-01-08T07:51:03.919Z,40
2018-01-08T07:52:03.689Z,40
2018-01-08T07:53:03.556Z,40
2018-01-08T07:54:03.832Z,40
2018-01-08T07:55:03.469Z,45
2018-01-08T07:56:03.926Z,45
2018-01-08T07:57:03.989Z,45
2018-01-08T07:58:04.128Z,45
2018-01-08T07:59:04.015Z,45
2018-01-08T08:00:19.559Z,50
2018-01-08T08:02:05.659Z,50
2018-01-08T08:03:05.439Z,50
2018-01-08T08:04:04.540Z,50
2018-01-08T08:05:05.195Z,55
2018-01-08T08:06:04.807Z,55
2018-01-08T08:07:05.242Z,55
2018-01-08T08:08:04.883Z,55
2018-01-08T08:09:04.885Z,55
2018-01-08T08:10:04.976Z,55
2018-01-08T08:11:05.254Z,60
2018-01-08T08:12:04.397Z,60
2018-01-08T08:13:05.049Z,60
2018-01-08T08:14:05.626Z,60
2018-01-08T08:15:05.464Z,65
2018-01-08T08:16:06.078Z,65
2018-01-08T08:17:05.554Z,65
2018-01-08T08:18:05.217Z,70
2018-01-08T08:19:04.850Z,70
2018-01-08T08:20:05.564Z,70
2018-01-08T08:21:05.077Z,70
2018-01-08T08:22:05.129Z,75
2018-01-08T08:23:06.205Z,75
2018-01-08T08:24:05.475Z,75
2018-01-08T08:25:06.185Z,75
2018-01-08T08:26:05.020Z,75
2018-01-08T08:27:06.339Z,80
2018-01-08T08:28:06.079Z,80
2018-01-08T08:29:06.135Z,80
2018-01-08T08:30:06.121Z,80
2018-01-08T08:31:05.819Z,85
2018-01-08T08:32:05.753Z,85
2018-01-08T08:33:05.783Z,85
2018-01-08T08:34:05.857Z,85
2018-01-08T08:35:06.102Z,85
2018-01-08T08:36:05.888Z,85
2018-01-08T08:37:05.616Z,90
2018-01-08T08:38:06.255Z,90
2018-01-08T08:39:06.128Z,90
2018-01-08T08:40:06.368Z,90
2018-01-08T08:41:06.008Z,90
2018-01-08T08:42:05.789Z,90
2018-01-08T08:43:07.134Z,90
2018-01-08T08:44:06.714Z,90
2018-01-08T08:45:07.029Z,95
2018-01-08T08:46:12.244Z,95
2018-01-08T08:47:12.686Z,95
2018-01-08T08:48:12.447Z,95
2018-01-08T08:49:11.975Z,95
2018-01-08T08:50:13.035Z,95
2018-01-08T08:51:12.516Z,95
2018-01-08T08:52:13.947Z,100
2018-01-08T08:53:12.452Z,100
2018-01-08T08:54:11.807Z,100
2018-01-08T08:55:12.386Z,100
2018-01-08T08:56:12.279Z,100
2018-01-08T08:57:12.332Z,100
2018-01-08T08:58:21.501Z,105
2018-01-08T08:59:12.816Z,105
2018-01-08T09:00:27.382Z,110
2018-01-08T09:01:13.190Z,115
2018-01-08T09:02:12.532Z,125
2018-01-08T09:03:12.784Z,135
2018-01-08T09:04:13.179Z,145
2018-01-08T09:05:14.050Z,155
2018-01-08T09:06:13.844Z,150
2018-01-08T09:07:14.023Z,155
2018-01-08T09:08:13.901Z,160
2018-01-08T09:09:13.601Z,155
2018-01-08T09:10:13.990Z,150
2018-01-08T09:11:13.409Z,170
2018-01-08T09:12:13.594Z,170
2018-01-08T09:13:13.511Z,155
2018-01-08T09:14:14.395Z,145
2018-01-08T09:15:14.365Z,145
2018-01-08T09:16:14.948Z,140
2018-01-08T09:17:14.771Z,170
2018-01-08T09:18:14.405Z,220
2018-01-08T09:19:14.907Z,255
2018-01-08T09:20:15.131Z,265
2018-01-08T09:21:15.519Z,270
2018-01-08T09:22:15.417Z,280
2018-01-08T09:23:15.560Z,275
2018-01-08T09:24:15.282Z,280
2018-01-08T09:25:16.029Z,275
2018-01-08T09:26:16.027Z,260
2018-01-08T09:27:16.275Z,255
2018-01-08T09:28:16.233Z,265
2018-01-08T09:29:15.873Z,280
2018-01-08T09:30:16.470Z,290
2018-01-08T09:31:16.726Z,285
2018-01-08T09:32:17.735Z,275
2018-01-08T09:33:17.414Z,275
2018-01-08T09:34:16.991Z,300
2018-01-08T09:35:17.279Z,295
2018-01-08T09:36:19.047Z,325
2018-01-08T09:37:19.016Z,305
2018-01-08T09:38:18.986Z,290
2018-01-08T09:39:17.149Z,310
2018-01-08T09:40:17.981Z,315
2018-01-08T09:41:17.006Z,305
2018-01-08T09:42:17.921Z,290
2018-01-08T09:43:16.980Z,275
2018-01-08T09:44:17.429Z,255
2018-01-08T09:45:16.995Z,250
2018-01-08T09:46:17.188Z,255
2018-01-08T09:47:16.883Z,250
2018-01-08T09:48:17.564Z,265
2018-01-08T09:49:18.733Z,280
2018-01-08T09:50:18.448Z,270
2018-01-08T09:51:17.614Z,265
2018-01-08T09:52:17.085Z,245
2018-01-08T09:53:17.891Z,240
2018-01-08T09:54:17.656Z,230
2018-01-08T09:55:18.139Z,235
2018-01-08T09:56:17.876Z,230
2018-01-08T09:57:18.668Z,225
2018-01-08T09:58:19.223Z,225
2018-01-08T09:59:19.420Z,250
2018-01-08T10:00:32.800Z,275
2018-01-08T10:01:18.652Z,290
2018-01-08T10:02:19.227Z,300
2018-01-08T10:03:18.246Z,315
2018-01-08T10:04:17.684Z,330
2018-01-08T10:05:19.237Z,330
2018-01-08T10:06:18.992Z,340
2018-01-08T10:07:18.798Z,335
2018-01-08T10:08:19.808Z,355
2018-01-08T10:09:18.835Z,360
2018-01-08T10:10:33.362Z,370
2018-01-08T10:11:18.534Z,365
2018-01-08T10:12:18.243Z,360
2018-01-08T10:13:19.025Z,365
2018-01-08T10:14:19.341Z,355
2018-01-08T10:15:19.806Z,320
2018-01-08T10:16:19.957Z,310
2018-01-08T10:17:19.881Z,320
2018-01-08T10:18:20.048Z,310
2018-01-08T10:19:20.707Z,320
2018-01-08T10:20:20.729Z,325
2018-01-08T10:21:20.420Z,320
2018-01-08T10:22:20.152Z,335
2018-01-08T10:23:20.350Z,345
2018-01-08T10:24:20.795Z,340
2018-01-08T10:25:20.717Z,310
2018-01-08T10:26:20.776Z,290
2018-01-08T10:27:21.373Z,315
2018-01-08T10:28:21.185Z,305
2018-01-08T10:29:21.058Z,310
2018-01-08T10:30:21.864Z,320
2018-01-08T10:31:21.680Z,335
2018-01-08T10:32:21.946Z,340
2018-01-08T10:33:21.773Z,345
2018-01-08T10:34:21.706Z,345
2018-01-08T10:35:22.553Z,345
2018-01-08T10:36:23.299Z,345
2018-01-08T10:37:22.133Z,340
2018-01-08T10:38:23.182Z,345
2018-01-08T10:39:23.301Z,345
2018-01-08T10:40:38.540Z,340
2018-01-08T10:41:24.539Z,340
2018-01-08T10:42:24.833Z,340
2018-01-08T10:43:21.947Z,335
2018-01-08T10:44:22.740Z,335
2018-01-08T10:45:22.633Z,330
2018-01-08T10:46:23.202Z,335
2018-01-08T10:47:22.994Z,335
2018-01-08T10:48:23.627Z,335
2018-01-08T10:49:23.960Z,335
2018-01-08T10:50:23.362Z,330
2018-01-08T10:51:23.008Z,330
2018-01-08T10:52:23.987Z,330
2018-01-08T10:53:23.231Z,325
2018-01-08T10:54:23.243Z,325
2018-01-08T10:55:23.885Z,325
2018-01-08T10:56:23.768Z,320
2018-01-08T10:57:23.980Z,315
2018-01-08T10:58:23.996Z,315
2018-01-08T10:59:24.713Z,300
2018-01-08T11:00:29.145Z,295
2018-01-08T11:01:29.574Z,285
2018-01-08T11:02:29.610Z,285
2018-01-08T11:03:29.788Z,280
2018-01-08T11:04:30.790Z,275
2018-01-08T11:05:31.040Z,270
2018-01-08T11:06:30.724Z,265
2018-01-08T11:07:30.978Z,265
2018-01-08T11:08:30.692Z,260
2018-01-08T11:09:30.536Z,260
2018-01-08T11:10:30.880Z,255
2018-01-08T11:11:31.129Z,250
2018-01-08T11:12:31.481Z,245
2018-01-08T11:13:46.254Z,245
2018-01-08T11:14:31.359Z,250
2018-01-08T11:15:32.912Z,240
2018-01-08T11:16:33.661Z,235
2018-01-08T11:17:34.014Z,215
2018-01-08T11:18:33.955Z,210
2018-01-08T11:19:32.712Z,205
2018-01-08T11:20:34.145Z,200
2018-01-08T11:21:32.541Z,200
2018-01-08T11:22:33.109Z,185
2018-01-08T11:23:31.671Z,190
2018-01-08T11:24:31.936Z,190
2018-01-08T11:25:32.420Z,185
2018-01-08T11:26:32.076Z,185
2018-01-08T11:27:32.754Z,175
2018-01-08T11:28:33.106Z,175
2018-01-08T11:29:32.663Z,170
2018-01-08T11:30:32.972Z,165
2018-01-08T11:31:33.456Z,165
2018-01-08T11:32:33.437Z,155
2018-01-08T11:33:33.539Z,160
2018-01-08T11:34:33.807Z,155
2018-01-08T11:35:34.683Z,150
2018-01-08T11:36:33.978Z,150
2018-01-08T11:37:34.447Z,145
2018-01-08T11:38:35.845Z,150
2018-01-08T11:39:35.278Z,145
2018-01-08T11:40:34.919Z,145
2018-01-08T11:41:34.791Z,145
2018-01-08T11:42:34.545Z,145
2018-01-08T11:43:35.918Z,145
2018-01-08T11:44:34.881Z,145
2018-01-08T11:46:35.162Z,140
2018-01-08T11:47:35.685Z,140
2018-01-08T11:48:36.335Z,140
2018-01-08T11:49:34.682Z,140
2018-01-08T11:50:35.013Z,135
2018-01-08T11:51:35.286Z,135
2018-01-08T11:52:35.713Z,135
2018-01-08T11:53:35.906Z,135
2018-01-08T11:54:36.024Z,135
2018-01-08T11:55:36.310Z,135
2018-01-08T11:56:36.511Z,130
2018-01-08T11:57:37.046Z,130
2018-01-08T11:58:38.104Z,135
2018-01-08T11:59:38.656Z,125
2018-01-08T12:00:38.068Z,120
2018-01-08T12:01:40.211Z,120
2018-01-08T12:02:38.802Z,125
2018-01-08T12:03:37.959Z,120
2018-01-08T12:04:37.541Z,120
2018-01-08T12:05:38.047Z,115
2018-01-08T12:06:39.499Z,120
2018-01-08T12:07:39.334Z,120
2018-01-08T12:08:39.925Z,120
2018-01-08T12:09:38.862Z,120
2018-01-08T12:10:37.384Z,120
2018-01-08T12:11:37.105Z,120
2018-01-08T12:12:37.707Z,120
2018-01-08T12:13:38.104Z,120
2018-01-08T12:14:37.477Z,120
2018-01-08T12:15:40.625Z,120
2018-01-08T12:16:38.572Z,120
2018-01-08T12:17:38.953Z,115
2018-01-08T12:18:38.664Z,115
2018-01-08T12:19:38.577Z,115
2018-01-08T12:20:38.168Z,115
2018-01-08T12:21:39.025Z,110
2018-01-08T12:22:38.557Z,110
2018-01-08T12:23:40.764Z,110
2018-01-08T12:24:39.402Z,110
2018-01-08T12:25:40.152Z,105
2018-01-08T12:26:42.252Z,105
2018-01-08T12:27:40.634Z,105
2018-01-08T12:28:39.642Z,105
2018-01-08T12:29:39.459Z,105
2018-01-08T12:30:39.777Z,100
2018-01-08T12:31:39.652Z,100
2018-01-08T12:32:39.620Z,100
2018-01-08T12:33:39.738Z,100
2018-01-08T12:34:40.152Z,100
2018-01-08T12:35:40.137Z,100
2018-01-08T12:36:41.250Z,100
2018-01-08T12:37:41.834Z,100
2018-01-08T12:38:39.636Z,100
2018-01-08T12:39:40.294Z,100
2018-01-08T12:40:40.046Z,95
2018-01-08T12:41:42.515Z,95
2018-01-08T12:42:42.606Z,95
2018-01-08T12:43:44.043Z,95
2018-01-08T12:44:44.153Z,95
2018-01-08T12:45:44.172Z,95
2018-01-08T12:46:44.166Z,95
2018-01-08T12:47:44.069Z,95
2018-01-08T12:48:44.539Z,95
2018-01-08T12:50:44.120Z,95
2018-01-08T12:51:44.246Z,95
2018-01-08T12:52:44.539Z,95
2018-01-08T12:53:44.196Z,95
2018-01-08T12:54:41.962Z,95
2018-01-08T12:55:43.316Z,95
2018-01-08T12:56:43.360Z,95
2018-01-08T12:57:43.266Z,95
2018-01-08T12:58:44.329Z,95
2018-01-08T12:59:44.314Z,95
2018-01-08T13:00:44.109Z,90
2018-01-08T13:01:43.875Z,90
2018-01-08T13:02:41.849Z,90
2018-01-08T13:03:42.531Z,90
2018-01-08T13:04:41.933Z,90
2018-01-08T13:05:44.106Z,90
2018-01-08T13:06:41.434Z,90
2018-01-08T13:07:42.772Z,90
2018-01-08T13:08:44.358Z,90
2018-01-08T13:09:42.081Z,90
2018-01-08T13:10:42.225Z,85
2018-01-08T13:11:42.765Z,85
2018-01-08T13:12:43.717Z,85
2018-01-08T13:13:43.085Z,85
2018-01-08T13:14:44.066Z,80
2018-01-08T13:15:43.222Z,85
2018-01-08T13:16:43.700Z,85
2018-01-08T13:17:44.310Z,85
2018-01-08T13:18:43.546Z,80
2018-01-08T13:19:43.397Z,80
2018-01-08T13:20:43.567Z,80
2018-01-08T13:21:44.095Z,75
2018-01-08T13:22:44.810Z,75
2018-01-08T13:23:43.989Z,75
2018-01-08T13:24:43.904Z,75
2018-01-08T13:25:44.238Z,70
2018-01-08T13:26:45.496Z,70
2018-01-08T13:27:45.018Z,70
2018-01-08T13:28:45.326Z,70
2018-01-08T13:29:45.598Z,70
2018-01-08T13:30:45.867Z,65
2018-01-08T13:31:45.189Z,65
2018-01-08T13:32:45.815Z,65
2018-01-08T13:33:45.871Z,65
2018-01-08T13:34:46.433Z,65
2018-01-08T13:35:46.372Z,65
2018-01-08T13:36:46.273Z,65
2018-01-08T13:37:46.974Z,65
2018-01-08T13:38:47.405Z,65
2018-01-08T13:39:46.610Z,65
2018-01-08T13:40:46.451Z,65
2018-01-08T13:41:46.053Z,65
2018-01-08T13:42:45.786Z,65
2018-01-08T13:43:46.727Z,65
2018-01-08T13:44:45.939Z,65
2018-01-08T13:45:46.589Z,60
2018-01-08T13:46:46.865Z,60
2018-01-08T13:47:46.678Z,60
2018-01-08T13:48:46.632Z,60
2018-01-08T13:49:46.404Z,55
2018-01-08T13:50:47.880Z,55
2018-01-08T13:51:46.169Z,55
2018-01-08T13:52:46.572Z,55
2018-01-08T13:53:46.184Z,55
2018-01-08T13:54:46.641Z,55
2018-01-08T13:55:46.926Z,55
2018-01-08T13:56:46.698Z,55
2018-01-08T13:57:46.157Z,55
2018-01-08T13:58:47.071Z,55
2018-01-08T13:59:46.523Z,55
2018-01-08T14:00:47.538Z,50
2018-01-08T14:01:47.125Z,50
2018-01-08T14:02:49.256Z,50
2018-01-08T14:03:47.859Z,50
2018-01-08T14:04:48.390Z,50
2018-01-08T14:05:47.022Z,50
2018-01-08T14:06:47.415Z,50
2018-01-08T14:07:46.672Z,45
2018-01-08T14:08:47.757Z,45
2018-01-08T14:09:47.649Z,45
2018-01-08T14:10:48.057Z,45
2018-01-08T14:11:48.092Z,45
2018-01-08T14:12:47.563Z,40
2018-01-08T14:13:47.922Z,40
2018-01-08T14:14:47.858Z,40
2018-01-08T14:15:47.217Z,40
2018-01-08T14:16:47.701Z,40
2018-01-08T14:17:48.115Z,40
2018-01-08T14:18:48.394Z,40
2018-01-08T14:19:47.898Z,40
2018-01-08T14:20:50.286Z,40
2018-01-08T14:21:49.152Z,40
2018-01-08T14:22:49.462Z,40
2018-01-08T14:23:49.771Z,40
2018-01-08T14:24:51.351Z,35
2018-01-08T14:25:50.672Z,35
2018-01-08T14:26:50.295Z,35
2018-01-08T14:27:50.987Z,35
2018-01-08T14:28:48.630Z,35